Ashippun, Wisconsin
Current Conditions -  °F | °C
As of 8:55 PM on Sunday 23 Nov 2014 (Local Time) from KRYV Reporting Station
Light Rain Light Rain  
Wind Chill: 42°   Ceiling: 300
Heat Index: 46°   Visibility: 4mi
Dew Point: 46°   Wind: 6mph
Humidity: 100%   Direction: 100°E
Pressure: 29.23"   Gusts: NA
Location:  43.21°N, 88.52°W
Report Text: KRYV 240255Z AUTO 10005KT 4SM -RA OVC003 08/08 A2923 RMK AO2 60001 T00750075
Loading
Personal Weather Stations






























Interactive Weather Map New forecast layout! Learn more

10-Day Weather Forecast

Advertisements
Track Severe Weather on mobile